Time;durP1;ratioP1;P1;durP2;ratioP2;P2;SDS_P1;SDS_P2;PMS_P1;PMS_P2;Temp;Humidity;BMP_temperature;BMP_pressure;BME280_temperature;BME280_humidity;BME280_pressure;Samples;Min_cycle;Max_cycle;Signal;HPM_P1;HPM_P2
2022/04/18 00:02:26;;;;;;;0.60;0.60;;;11.60;91.40;;;;;;5032882;28;20225;-67
2022/04/18 00:04:53;;;;;;;0.50;0.50;;;11.60;91.60;;;;;;5035037;28;20289;-67
2022/04/18 00:07:21;;;;;;;0.50;0.50;;;11.50;91.60;;;;;;5035019;28;20264;-66
2022/04/18 00:09:47;;;;;;;0.52;0.52;;;11.50;91.70;;;;;;5027286;28;20259;-67
2022/04/18 00:12:16;;;;;;;0.70;0.70;;;11.50;91.70;;;;;;5030750;28;20229;-67
2022/04/18 00:14:44;;;;;;;0.47;0.47;;;11.50;92.00;;;;;;5028284;28;20205;-67
2022/04/18 00:17:11;;;;;;;0.50;0.50;;;11.50;92.20;;;;;;5027581;28;20312;-67
2022/04/18 00:19:38;;;;;;;0.70;0.70;;;11.50;91.70;;;;;;5025954;28;20213;-66
2022/04/18 00:22:06;;;;;;;0.70;0.70;;;11.50;91.90;;;;;;5029472;28;20252;-67
2022/04/18 00:24:33;;;;;;;0.70;0.70;;;11.40;91.90;;;;;;5033704;28;20220;-67
2022/04/18 00:27:01;;;;;;;0.70;0.70;;;11.40;92.00;;;;;;5029970;28;20201;-66
2022/04/18 00:29:29;;;;;;;0.70;0.70;;;11.40;91.80;;;;;;5033249;28;20228;-67
2022/04/18 00:31:57;;;;;;;0.60;0.60;;;11.30;92.00;;;;;;5027274;28;20287;-67
2022/04/18 00:34:23;;;;;;;0.75;0.75;;;11.30;92.00;;;;;;5023394;28;20193;-66
2022/04/18 00:36:50;;;;;;;0.60;0.60;;;11.30;91.90;;;;;;5021103;28;20225;-67
2022/04/18 00:39:17;;;;;;;0.60;0.60;;;11.20;92.00;;;;;;5028403;28;20288;-68
2022/04/18 00:41:44;;;;;;;0.73;0.73;;;11.20;92.00;;;;;;5031702;28;20263;-66
2022/04/18 00:44:11;;;;;;;1.00;0.90;;;11.10;92.00;;;;;;5030251;28;20574;-67
2022/04/18 00:46:40;;;;;;;0.60;0.60;;;11.10;92.30;;;;;;5025266;28;20209;-66
2022/04/18 00:49:06;;;;;;;0.73;0.73;;;11.00;92.30;;;;;;5023224;28;20240;-68
2022/04/18 00:51:34;;;;;;;0.55;0.55;;;11.00;92.40;;;;;;5027362;28;20382;-68
2022/04/18 00:54:01;;;;;;;0.60;0.60;;;11.00;92.40;;;;;;5048207;28;20205;-67
2022/04/18 00:56:28;;;;;;;0.80;0.80;;;11.00;92.20;;;;;;5039431;28;20320;-67
2022/04/18 00:58:56;;;;;;;0.70;0.70;;;11.00;92.30;;;;;;5036153;28;20204;-67
2022/04/18 01:01:24;;;;;;;0.60;0.60;;;10.90;92.60;;;;;;5043580;28;20255;-67
2022/04/18 01:03:52;;;;;;;0.73;0.73;;;10.90;92.50;;;;;;5045772;28;20209;-68
2022/04/18 01:06:20;;;;;;;0.75;0.75;;;10.90;92.70;;;;;;5045127;28;20291;-68
2022/04/18 01:08:48;;;;;;;0.80;0.80;;;10.90;92.50;;;;;;5047644;28;20205;-67
2022/04/18 01:11:16;;;;;;;0.70;0.70;;;10.90;92.50;;;;;;5044039;28;20228;-67
2022/04/18 01:13:44;;;;;;;0.80;0.80;;;11.00;92.50;;;;;;5034097;28;20216;-67
2022/04/18 01:16:11;;;;;;;0.88;0.88;;;11.00;92.50;;;;;;5017378;28;20204;-67
2022/04/18 01:18:38;;;;;;;0.82;0.82;;;11.00;92.40;;;;;;5022330;28;20251;-68
2022/04/18 01:21:07;;;;;;;0.70;0.70;;;11.00;92.40;;;;;;5021187;28;20225;-67
2022/04/18 01:23:34;;;;;;;0.90;0.90;;;11.00;92.40;;;;;;5025844;28;20935;-67
2022/04/18 01:29:01;;;;;;;0.60;0.60;;;11.00;92.50;;;;;;5017947;28;20200;-67
2022/04/18 01:31:30;;;;;;;0.70;0.70;;;11.00;92.50;;;;;;5020132;28;20228;-66
2022/04/18 01:33:57;;;;;;;0.63;0.63;;;11.00;92.80;;;;;;5029517;28;20235;-66
2022/04/18 01:36:25;;;;;;;0.80;0.80;;;11.00;92.50;;;;;;5025559;28;20255;-67
2022/04/18 01:38:52;;;;;;;0.75;0.75;;;11.00;92.70;;;;;;5032747;28;20247;-68
2022/04/18 01:41:20;;;;;;;0.80;0.80;;;11.00;92.70;;;;;;5028374;28;20710;-68
2022/04/18 01:43:47;;;;;;;0.60;0.60;;;11.00;92.80;;;;;;5025863;28;20204;-68
2022/04/18 01:46:15;;;;;;;0.90;0.90;;;11.00;92.60;;;;;;5021101;28;20649;-67
2022/04/18 01:48:42;;;;;;;0.73;0.73;;;11.00;92.60;;;;;;5023641;28;20201;-67
2022/04/18 01:51:09;;;;;;;0.80;0.80;;;11.00;92.70;;;;;;5016637;28;20316;-68
2022/04/18 01:53:37;;;;;;;0.68;0.68;;;11.00;92.60;;;;;;5019802;28;20240;-67
2022/04/18 01:56:05;;;;;;;0.68;0.68;;;11.00;92.70;;;;;;5016627;28;20296;-67
2022/04/18 01:58:32;;;;;;;0.70;0.70;;;10.90;93.00;;;;;;5027407;28;20236;-66
2022/04/18 02:00:59;;;;;;;0.70;0.70;;;11.00;93.10;;;;;;5032955;28;20309;-67
2022/04/18 02:03:26;;;;;;;0.60;0.60;;;10.90;93.20;;;;;;5026636;28;20292;-67
2022/04/18 02:05:55;;;;;;;0.50;0.50;;;10.80;93.10;;;;;;5030414;28;20295;-67
2022/04/18 02:08:22;;;;;;;0.73;0.73;;;10.80;93.50;;;;;;5020418;28;20283;-67
2022/04/18 02:10:50;;;;;;;0.60;0.60;;;10.80;93.40;;;;;;5024073;28;20253;-67
2022/04/18 02:13:17;;;;;;;0.70;0.70;;;10.70;93.60;;;;;;5022053;28;20299;-67
2022/04/18 02:15:44;;;;;;;0.60;0.60;;;10.70;93.70;;;;;;5026557;28;20608;-67
2022/04/18 02:18:11;;;;;;;0.40;0.40;;;10.70;93.70;;;;;;5026925;28;20205;-66
2022/04/18 02:20:38;;;;;;;0.50;0.50;;;10.70;93.80;;;;;;5029765;28;20590;-67
2022/04/18 02:23:06;;;;;;;0.70;0.70;;;10.70;93.70;;;;;;5018771;28;20215;-68
2022/04/18 02:25:33;;;;;;;0.70;0.70;;;10.70;93.80;;;;;;5030416;28;20215;-66
2022/04/18 02:28:02;;;;;;;0.77;0.77;;;10.70;94.00;;;;;;5022923;28;20215;-68
2022/04/18 02:30:29;;;;;;;0.68;0.68;;;10.70;94.00;;;;;;5032357;28;20248;-68
2022/04/18 02:32:56;;;;;;;0.80;0.80;;;10.80;94.20;;;;;;5032358;28;20255;-68
2022/04/18 02:35:24;;;;;;;0.73;0.73;;;10.70;94.10;;;;;;5032336;28;20235;-70
2022/04/18 02:37:52;;;;;;;0.70;0.70;;;10.60;94.40;;;;;;5031189;28;20259;-67
2022/04/18 02:40:20;;;;;;;0.70;0.70;;;10.50;94.40;;;;;;5022340;28;20201;-67
2022/04/18 02:42:47;;;;;;;0.60;0.60;;;10.50;94.30;;;;;;5026277;28;20255;-68
2022/04/18 02:45:17;;;;;;;0.68;0.68;;;10.50;94.30;;;;;;5034796;28;20674;-66
2022/04/18 02:47:44;;;;;;;0.70;0.70;;;10.50;94.50;;;;;;5036097;28;20714;-66
2022/04/18 02:50:11;;;;;;;0.50;0.50;;;10.60;94.80;;;;;;5032780;28;20766;-67
2022/04/18 02:52:39;;;;;;;0.70;0.70;;;10.50;95.30;;;;;;5031839;28;20228;-66
2022/04/18 02:55:07;;;;;;;0.67;0.67;;;10.40;95.40;;;;;;5032233;28;20208;-68
2022/04/18 02:57:33;;;;;;;0.60;0.60;;;10.20;95.70;;;;;;5029431;28;20215;-67
2022/04/18 03:00:01;;;;;;;0.50;0.50;;;10.30;96.10;;;;;;5012537;28;20297;-68
2022/04/18 03:02:29;;;;;;;0.63;0.63;;;10.20;96.00;;;;;;5014722;28;20311;-66
2022/04/18 03:04:56;;;;;;;0.52;0.52;;;10.10;96.10;;;;;;5032555;28;20243;-66
2022/04/18 03:07:23;;;;;;;0.63;0.63;;;10.10;96.30;;;;;;5031555;28;20494;-66
2022/04/18 03:09:49;;;;;;;0.80;0.80;;;10.00;96.60;;;;;;5032658;28;20691;-67
2022/04/18 03:12:16;;;;;;;0.60;0.60;;;9.90;97.30;;;;;;5033102;28;20311;-67
2022/04/18 03:14:44;;;;;;;0.65;0.65;;;9.90;97.60;;;;;;5033112;28;20248;-68
2022/04/18 03:17:11;;;;;;;0.68;0.68;;;9.90;97.30;;;;;;5031586;28;20701;-66
2022/04/18 03:19:40;;;;;;;0.73;0.73;;;9.70;97.90;;;;;;5032049;28;20274;-67
2022/04/18 03:22:07;;;;;;;0.60;0.60;;;9.50;98.70;;;;;;5034458;28;20571;-67
2022/04/18 03:24:34;;;;;;;0.90;0.90;;;9.30;98.70;;;;;;5036647;28;20272;-67
2022/04/18 03:27:01;;;;;;;0.73;0.73;;;9.30;99.30;;;;;;5032990;28;20208;-67
2022/04/18 03:29:28;;;;;;;0.55;0.55;;;9.30;99.00;;;;;;5032810;28;20220;-66
2022/04/18 03:31:56;;;;;;;0.65;0.65;;;9.40;98.90;;;;;;5032756;28;20872;-67
2022/04/18 03:34:23;;;;;;;0.68;0.68;;;9.30;98.80;;;;;;5032648;28;20236;-66
2022/04/18 03:39:55;;;;;;;0.63;0.63;;;9.30;99.20;;;;;;5052134;28;20214;-67
2022/04/18 03:42:33;;;;;;;0.80;0.80;;;9.30;99.00;;;;;;5046268;28;20232;-67
2022/04/18 03:45:02;;;;;;;0.70;0.70;;;9.20;99.70;;;;;;5041074;28;20246;-66
2022/04/18 03:47:30;;;;;;;0.65;0.65;;;9.10;99.90;;;;;;5045015;23;20592;-67
2022/04/18 03:49:57;;;;;;;0.60;0.60;;;8.90;99.90;;;;;;5017965;28;20233;-68
2022/04/18 03:52:26;;;;;;;0.70;0.70;;;8.80;99.90;;;;;;5031759;28;20226;-66
2022/04/18 03:54:53;;;;;;;0.80;0.80;;;8.80;99.90;;;;;;5031275;28;20204;-67
2022/04/18 03:57:20;;;;;;;0.80;0.80;;;8.70;99.90;;;;;;5009330;28;20229;-68
2022/04/18 03:59:47;;;;;;;0.80;0.80;;;8.60;99.90;;;;;;5006879;28;20209;-69
2022/04/18 04:02:14;;;;;;;0.90;0.90;;;8.50;99.90;;;;;;5005015;28;20301;-67
2022/04/18 04:04:42;;;;;;;0.65;0.65;;;8.40;99.90;;;;;;5012288;28;20209;-67
2022/04/18 04:07:09;;;;;;;0.60;0.60;;;8.30;99.90;;;;;;5003201;28;20221;-66
2022/04/18 04:09:38;;;;;;;0.85;0.85;;;8.20;99.90;;;;;;5011474;28;20215;-67
2022/04/18 04:12:06;;;;;;;1.85;0.70;;;8.20;99.90;;;;;;5012062;28;20256;-68
2022/04/18 04:14:33;;;;;;;0.70;0.70;;;8.10;99.90;;;;;;5012570;28;20243;-67
2022/04/18 04:17:00;;;;;;;0.70;0.70;;;8.10;99.90;;;;;;5011098;28;20264;-69
2022/04/18 04:19:27;;;;;;;0.77;0.77;;;8.10;99.90;;;;;;5011731;28;20296;-68
2022/04/18 04:21:54;;;;;;;0.60;0.60;;;8.00;99.90;;;;;;5013802;28;20582;-69
2022/04/18 04:24:21;;;;;;;0.57;0.57;;;8.00;99.90;;;;;;5015217;28;20212;-67
2022/04/18 04:26:50;;;;;;;0.60;0.60;;;7.80;99.90;;;;;;5014554;28;20249;-67
2022/04/18 04:29:17;;;;;;;0.75;0.75;;;7.80;99.90;;;;;;5015387;28;20205;-68
2022/04/18 04:31:44;;;;;;;0.60;0.60;;;7.80;99.90;;;;;;5015446;28;20601;-67
2022/04/18 04:34:12;;;;;;;0.70;0.70;;;7.60;99.90;;;;;;5015549;28;20217;-69
2022/04/18 04:36:41;;;;;;;0.60;0.60;;;7.60;99.90;;;;;;5014144;28;20237;-67
2022/04/18 04:39:07;;;;;;;0.70;0.70;;;7.70;99.90;;;;;;5015083;28;20212;-68
2022/04/18 04:41:35;;;;;;;0.70;0.70;;;7.70;99.90;;;;;;5015377;28;20289;-68
2022/04/18 04:44:03;;;;;;;0.80;0.80;;;7.80;99.90;;;;;;5014958;28;20205;-73
2022/04/18 04:46:30;;;;;;;0.70;0.70;;;7.90;99.90;;;;;;5014630;28;20229;-67
2022/04/18 04:48:57;;;;;;;0.80;0.80;;;7.90;99.90;;;;;;5005364;28;20237;-68
2022/04/18 04:51:24;;;;;;;0.70;0.68;;;8.00;99.90;;;;;;5015521;28;20587;-68
2022/04/18 04:53:51;;;;;;;0.80;0.80;;;7.90;99.90;;;;;;5018936;28;20243;-67
2022/04/18 04:56:19;;;;;;;0.80;0.80;;;7.90;99.90;;;;;;5022610;28;20321;-67
2022/04/18 04:58:46;;;;;;;0.80;0.80;;;7.90;99.90;;;;;;5024384;28;20268;-66
2022/04/18 05:01:14;;;;;;;0.90;0.90;;;7.80;99.90;;;;;;5017127;28;20698;-68
2022/04/18 05:03:41;;;;;;;1.17;1.17;;;7.80;99.90;;;;;;5016465;28;20254;-67
2022/04/18 05:06:08;;;;;;;1.00;1.00;;;7.80;99.90;;;;;;5014733;28;20225;-69
2022/04/18 05:08:35;;;;;;;1.15;1.15;;;7.80;99.90;;;;;;5014323;28;20206;-69
2022/04/18 05:11:02;;;;;;;0.95;0.95;;;7.90;99.90;;;;;;5014731;28;20272;-67
2022/04/18 05:13:29;;;;;;;0.90;0.90;;;7.90;99.90;;;;;;5014846;28;20224;-68
2022/04/18 05:15:56;;;;;;;0.90;0.90;;;7.80;99.90;;;;;;5002379;28;20253;-67
2022/04/18 05:18:24;;;;;;;0.80;0.80;;;7.90;99.90;;;;;;5017560;28;20587;-69
2022/04/18 05:20:51;;;;;;;0.90;0.90;;;7.90;99.90;;;;;;5028612;28;20212;-68
2022/04/18 05:23:20;;;;;;;0.70;0.70;;;7.80;99.90;;;;;;5012639;28;20230;-68
2022/04/18 05:25:47;;;;;;;0.90;0.90;;;7.80;99.90;;;;;;5006360;28;20213;-68
2022/04/18 05:28:14;;;;;;;0.60;0.60;;;7.80;99.90;;;;;;5013619;28;20243;-67
2022/04/18 05:30:41;;;;;;;0.70;0.70;;;7.70;99.90;;;;;;5014024;28;20315;-68
2022/04/18 05:33:08;;;;;;;0.75;0.75;;;7.70;99.90;;;;;;5013671;28;20232;-68
2022/04/18 05:35:36;;;;;;;0.80;0.80;;;7.70;99.90;;;;;;5014671;28;20292;-67
2022/04/18 05:38:03;;;;;;;0.60;0.60;;;7.80;99.90;;;;;;5013648;28;20236;-68
2022/04/18 05:40:31;;;;;;;0.80;0.80;;;7.80;99.90;;;;;;5014017;28;20296;-68
2022/04/18 05:42:58;;;;;;;0.80;0.80;;;7.80;99.90;;;;;;5014681;28;20224;-67
2022/04/18 05:45:25;;;;;;;0.90;0.90;;;7.90;99.90;;;;;;5011646;28;20225;-67
2022/04/18 05:47:52;;;;;;;0.75;0.75;;;8.00;99.90;;;;;;5007748;28;20205;-70
2022/04/18 05:50:20;;;;;;;0.80;0.80;;;8.20;99.90;;;;;;5014589;28;20296;-68
2022/04/18 05:52:49;;;;;;;0.65;0.65;;;8.30;99.90;;;;;;5004266;28;20228;-68
2022/04/18 05:55:16;;;;;;;0.50;0.50;;;8.40;99.90;;;;;;5012036;28;20197;-67
2022/04/18 05:57:43;;;;;;;0.70;0.70;;;8.40;99.90;;;;;;5012870;28;20324;-69
2022/04/18 06:00:10;;;;;;;0.70;0.70;;;8.50;99.90;;;;;;5013786;28;20659;-67
2022/04/18 06:02:37;;;;;;;0.60;0.60;;;8.70;99.90;;;;;;5014789;28;20213;-69
2022/04/18 06:05:05;;;;;;;0.70;0.70;;;8.80;99.90;;;;;;5014540;28;20312;-67
2022/04/18 06:07:34;;;;;;;0.77;0.77;;;9.00;99.90;;;;;;5013067;28;20229;-68
2022/04/18 06:10:02;;;;;;;1.00;0.95;;;9.10;99.90;;;;;;5012392;28;20228;-68
2022/04/18 06:12:29;;;;;;;1.00;1.00;;;9.10;99.90;;;;;;5005079;28;20796;-69
2022/04/18 06:14:56;;;;;;;1.15;1.13;;;9.20;99.90;;;;;;5014244;28;20674;-68
2022/04/18 06:17:23;;;;;;;1.00;1.00;;;9.40;99.90;;;;;;5013190;28;20233;-68
2022/04/18 06:19:50;;;;;;;1.35;1.35;;;9.30;99.90;;;;;;5014000;28;20228;-68
2022/04/18 06:22:17;;;;;;;1.17;1.17;;;9.40;99.90;;;;;;5013779;28;20204;-67
2022/04/18 06:24:44;;;;;;;1.00;1.00;;;9.30;99.90;;;;;;5014342;28;20205;-69
2022/04/18 06:27:12;;;;;;;1.33;1.20;;;9.30;99.90;;;;;;5013587;28;20652;-68
2022/04/18 06:29:39;;;;;;;1.08;0.80;;;9.50;99.90;;;;;;5013404;28;20296;-68
2022/04/18 06:32:07;;;;;;;0.95;0.95;;;9.50;99.90;;;;;;5013790;28;20324;-69
2022/04/18 06:34:34;;;;;;;0.80;0.80;;;9.60;99.90;;;;;;5013786;28;20260;-69
2022/04/18 06:37:01;;;;;;;0.90;0.90;;;9.80;99.90;;;;;;5012941;28;20257;-67
2022/04/18 06:39:28;;;;;;;0.75;0.75;;;10.00;99.90;;;;;;5013567;28;20237;-69
2022/04/18 06:41:56;;;;;;;0.80;0.80;;;10.00;99.90;;;;;;5012994;28;20220;-69
2022/04/18 06:44:25;;;;;;;0.93;0.93;;;10.00;99.90;;;;;;5012662;28;20237;-68
2022/04/18 06:46:52;;;;;;;0.82;0.82;;;10.00;99.90;;;;;;5011096;28;20287;-68
2022/04/18 06:49:18;;;;;;;0.73;0.73;;;10.10;99.90;;;;;;5013530;28;20210;-68
2022/04/18 06:51:45;;;;;;;0.98;0.98;;;10.20;99.90;;;;;;5014685;28;20263;-66
2022/04/18 06:54:12;;;;;;;0.70;0.70;;;10.40;99.90;;;;;;5017961;28;20205;-68
2022/04/18 06:59:25;;;;;;;0.90;0.90;;;10.70;99.90;;;;;;5021212;28;20255;-69
2022/04/18 07:01:52;;;;;;;0.88;0.88;;;10.80;99.90;;;;;;5014317;28;20264;-68
2022/04/18 07:04:19;;;;;;;0.90;0.90;;;11.00;99.90;;;;;;5018242;28;20557;-69
2022/04/18 07:06:46;;;;;;;0.70;0.70;;;11.20;99.90;;;;;;5007063;28;20217;-66
2022/04/18 07:09:13;;;;;;;0.80;0.80;;;11.40;99.90;;;;;;4998690;28;20234;-68
2022/04/18 07:11:42;;;;;;;0.90;0.90;;;11.60;99.90;;;;;;4994400;28;20598;-68
2022/04/18 07:14:09;;;;;;;0.98;0.98;;;11.60;99.90;;;;;;4994455;28;20210;-68
2022/04/18 07:16:37;;;;;;;1.17;1.17;;;11.60;99.90;;;;;;4995255;28;20313;-67
2022/04/18 07:19:04;;;;;;;1.38;1.00;;;11.70;99.90;;;;;;5001657;28;20217;-66
2022/04/18 07:21:31;;;;;;;1.00;1.00;;;11.70;99.90;;;;;;5023042;28;20621;-68
2022/04/18 07:23:58;;;;;;;0.73;0.73;;;11.80;99.90;;;;;;5030907;28;20207;-66
2022/04/18 07:26:25;;;;;;;0.90;0.90;;;11.80;99.90;;;;;;5006959;28;20222;-68
2022/04/18 07:28:53;;;;;;;0.90;0.90;;;11.90;99.90;;;;;;5009633;28;20288;-68
2022/04/18 07:31:20;;;;;;;1.00;1.00;;;11.90;99.90;;;;;;5012803;28;20221;-66
2022/04/18 07:33:48;;;;;;;0.85;0.85;;;11.90;99.90;;;;;;5011925;28;20259;-67
2022/04/18 07:36:15;;;;;;;0.70;0.70;;;12.00;99.90;;;;;;4996410;28;20221;-67
2022/04/18 07:38:51;;;;;;;0.90;0.90;;;12.20;99.90;;;;;;4993905;28;20229;-66
2022/04/18 07:41:20;;;;;;;1.00;1.00;;;12.20;99.90;;;;;;5001087;28;20289;-69
2022/04/18 07:43:47;;;;;;;0.90;0.90;;;12.30;99.90;;;;;;4998362;28;20289;-68
2022/04/18 07:46:16;;;;;;;1.00;1.00;;;12.40;99.90;;;;;;4997805;28;20253;-68
2022/04/18 07:48:43;;;;;;;0.88;0.88;;;12.50;99.90;;;;;;5012677;28;20224;-67
2022/04/18 07:53:57;;;;;;;0.90;0.90;;;12.50;99.90;;;;;;5001569;28;20212;-68
2022/04/18 07:56:24;;;;;;;1.10;1.10;;;12.70;99.90;;;;;;5006229;28;20304;-66
2022/04/18 07:58:52;;;;;;;0.98;0.98;;;12.70;99.90;;;;;;5009355;28;20237;-68
2022/04/18 08:01:19;;;;;;;1.00;1.00;;;12.90;99.90;;;;;;5006851;28;20731;-66
2022/04/18 08:03:46;;;;;;;1.10;1.10;;;13.00;99.90;;;;;;5007077;28;20206;-67
2022/04/18 08:06:14;;;;;;;0.90;0.90;;;12.90;99.90;;;;;;5003563;28;20704;-67
2022/04/18 08:08:42;;;;;;;0.90;0.90;;;13.10;99.90;;;;;;5004128;28;20236;-65
2022/04/18 08:11:11;;;;;;;0.90;0.90;;;13.30;99.90;;;;;;4997458;28;20288;-67
2022/04/18 08:13:40;;;;;;;0.80;0.80;;;13.40;99.90;;;;;;5000252;28;20220;-67
2022/04/18 08:16:08;;;;;;;1.05;1.05;;;13.50;99.90;;;;;;5005646;28;20260;-67
2022/04/18 08:18:38;;;;;;;0.88;0.88;;;13.60;99.90;;;;;;5008850;28;20216;-67
2022/04/18 08:21:05;;;;;;;1.00;1.00;;;13.70;99.90;;;;;;5011231;28;20685;-67
2022/04/18 08:23:35;;;;;;;0.90;0.90;;;13.60;99.90;;;;;;5009775;28;20223;-68
2022/04/18 08:26:03;;;;;;;0.90;0.90;;;13.70;99.90;;;;;;5004906;28;20221;-66
2022/04/18 08:28:30;;;;;;;0.90;0.90;;;13.70;99.90;;;;;;5002695;28;20579;-66
2022/04/18 08:30:58;;;;;;;1.00;1.00;;;13.70;99.90;;;;;;5001913;28;20261;-66
2022/04/18 08:33:26;;;;;;;1.20;1.10;;;13.80;99.90;;;;;;5001818;28;20233;-69
2022/04/18 08:35:53;;;;;;;1.00;1.00;;;13.80;99.90;;;;;;5004097;28;20233;-67
2022/04/18 08:38:20;;;;;;;0.82;0.82;;;13.90;99.90;;;;;;5001435;28;20202;-66
2022/04/18 08:40:50;;;;;;;1.20;1.20;;;13.90;99.90;;;;;;5000030;28;20237;-66
2022/04/18 08:43:17;;;;;;;1.00;1.00;;;14.10;99.90;;;;;;5007418;28;20222;-67
2022/04/18 08:45:44;;;;;;;1.08;0.90;;;14.10;99.90;;;;;;5011724;28;20724;-66
2022/04/18 08:54:00;;;;;;;1.23;1.20;;;14.10;99.90;;;;;;4946579;28;20201;-69
2022/04/18 08:56:28;;;;;;;1.00;1.00;;;14.40;99.90;;;;;;4943533;28;20672;-68
2022/04/18 08:58:55;;;;;;;0.80;0.80;;;14.60;99.90;;;;;;4971597;28;20668;-66
2022/04/18 09:01:22;;;;;;;0.77;0.77;;;14.80;99.90;;;;;;5004824;28;20635;-66
2022/04/18 09:03:49;;;;;;;0.80;0.80;;;14.90;99.90;;;;;;5013077;28;20220;-67
2022/04/18 09:06:17;;;;;;;0.90;0.90;;;15.10;99.90;;;;;;5008711;28;20248;-66
2022/04/18 09:08:46;;;;;;;0.80;0.80;;;15.00;99.90;;;;;;5008295;28;20252;-67
2022/04/18 09:11:25;;;;;;;0.80;0.80;;;15.20;99.90;;;;;;5015757;28;20209;-66
2022/04/18 09:13:59;;;;;;;1.15;0.90;;;15.30;99.90;;;;;;5004434;28;20233;-66
2022/04/18 09:16:30;;;;;;;0.70;0.70;;;15.30;99.90;;;;;;5006382;28;20235;-68
2022/04/18 09:19:05;;;;;;;0.80;0.80;;;15.50;99.90;;;;;;5013757;28;20202;-66
2022/04/18 09:21:33;;;;;;;0.60;0.60;;;15.30;96.20;;;;;;5008293;28;20738;-67
2022/04/18 09:24:00;;;;;;;0.82;0.82;;;15.40;97.60;;;;;;5004536;28;20202;-68
2022/04/18 09:26:27;;;;;;;0.90;0.90;;;15.50;97.70;;;;;;5009154;28;20316;-68
2022/04/18 09:29:05;;;;;;;0.90;0.90;;;15.60;96.70;;;;;;5000783;28;20293;-69
2022/04/18 09:31:40;;;;;;;0.90;0.90;;;15.60;96.50;;;;;;5009090;28;20221;-68
2022/04/18 09:34:07;;;;;;;0.80;0.80;;;15.80;97.60;;;;;;5009197;28;20209;-68
2022/04/18 09:36:34;;;;;;;0.70;0.70;;;16.10;97.40;;;;;;5002946;28;20755;-67
2022/04/18 09:39:01;;;;;;;0.88;0.88;;;16.00;98.20;;;;;;5003034;28;20218;-67
2022/04/18 09:41:31;;;;;;;1.10;1.00;;;16.00;98.30;;;;;;5017581;28;20278;-68
2022/04/18 09:43:59;;;;;;;0.90;0.90;;;16.10;99.20;;;;;;5020995;28;20248;-66
2022/04/18 09:46:27;;;;;;;1.27;0.95;;;16.30;97.70;;;;;;5023455;28;20293;-70
2022/04/18 09:49:01;;;;;;;0.90;0.90;;;16.20;96.60;;;;;;5002998;28;20201;-67
2022/04/18 09:51:30;;;;;;;0.90;0.90;;;16.10;96.80;;;;;;5000904;28;20687;-68
2022/04/18 09:53:58;;;;;;;0.95;0.95;;;16.20;97.00;;;;;;5006867;28;20283;-69
2022/04/18 09:56:27;;;;;;;0.80;0.80;;;16.40;97.40;;;;;;5016357;28;20232;-67
2022/04/18 09:58:57;;;;;;;0.90;0.90;;;16.50;97.20;;;;;;5024754;28;20216;-69
2022/04/18 10:01:25;;;;;;;0.90;0.90;;;16.60;96.80;;;;;;5021753;28;20197;-69
2022/04/18 10:03:54;;;;;;;0.90;0.90;;;16.40;96.20;;;;;;5008332;28;20229;-67
2022/04/18 10:06:21;;;;;;;0.80;0.80;;;16.50;96.80;;;;;;4999833;28;20317;-68
2022/04/18 10:08:48;;;;;;;0.88;0.88;;;16.40;96.30;;;;;;5005198;28;20328;-67
2022/04/18 10:11:15;;;;;;;0.70;0.70;;;16.60;97.20;;;;;;5008021;28;20296;-68
2022/04/18 10:13:42;;;;;;;0.90;0.90;;;16.90;96.60;;;;;;5010877;28;20253;-71
2022/04/18 10:16:10;;;;;;;0.93;0.93;;;16.90;96.60;;;;;;5006782;28;20311;-68
2022/04/18 10:18:44;;;;;;;0.90;0.90;;;17.00;96.90;;;;;;5009980;28;20691;-67
2022/04/18 10:21:25;;;;;;;0.95;0.95;;;17.00;96.00;;;;;;5004344;28;20676;-69
2022/04/18 10:24:14;;;;;;;1.10;1.10;;;17.10;96.00;;;;;;4996184;28;20236;-66
2022/04/18 10:27:24;;;;;;;0.90;0.90;;;17.10;96.80;;;;;;5005001;28;20217;-67
2022/04/18 10:29:54;;;;;;;0.95;0.95;;;17.20;97.60;;;;;;5003661;28;20208;-67
2022/04/18 10:32:24;;;;;;;0.90;0.90;;;17.30;98.00;;;;;;5002183;28;20281;-66
2022/04/18 10:34:52;;;;;;;0.82;0.82;;;17.20;96.80;;;;;;5004782;28;20205;-69
2022/04/18 10:37:25;;;;;;;0.82;0.82;;;17.10;97.20;;;;;;4999221;28;20717;-69
2022/04/18 10:40:00;;;;;;;0.93;0.88;;;17.30;97.10;;;;;;5008444;28;20201;-67
2022/04/18 10:42:35;;;;;;;0.80;0.80;;;17.40;97.70;;;;;;5009768;28;20252;-67
2022/04/18 10:45:08;;;;;;;1.00;1.00;;;17.30;97.90;;;;;;5003573;28;20228;-68
2022/04/18 10:48:05;;;;;;;1.27;0.98;;;17.20;98.10;;;;;;5010088;28;20265;-68
2022/04/18 10:50:42;;;;;;;1.20;0.93;;;17.40;98.00;;;;;;4999207;28;20249;-68
2022/04/18 10:53:12;;;;;;;0.82;0.82;;;17.50;97.60;;;;;;5006113;28;20237;-68
2022/04/18 10:55:42;;;;;;;0.90;0.90;;;17.80;98.30;;;;;;4999104;28;20197;-69
2022/04/18 10:58:12;;;;;;;0.98;0.98;;;17.80;97.10;;;;;;4995807;28;20206;-69
2022/04/18 11:00:50;;;;;;;1.00;1.00;;;18.00;96.90;;;;;;5002334;28;20667;-67
2022/04/18 11:03:38;;;;;;;1.08;1.08;;;17.90;96.30;;;;;;5004197;28;20198;-68
2022/04/18 11:06:09;;;;;;;0.80;0.80;;;18.00;96.40;;;;;;4995519;28;20265;-68
2022/04/18 11:08:38;;;;;;;0.80;0.80;;;18.00;96.70;;;;;;4995311;28;20700;-68
2022/04/18 11:11:06;;;;;;;0.90;0.90;;;18.10;96.90;;;;;;4997440;28;20206;-68
2022/04/18 11:13:33;;;;;;;1.10;1.00;;;18.30;96.80;;;;;;4994322;28;20230;-67
2022/04/18 11:16:36;;;;;;;0.90;0.90;;;18.40;96.60;;;;;;4993793;28;20226;-67
2022/04/18 11:19:07;;;;;;;0.90;0.90;;;18.30;95.90;;;;;;4978583;28;20308;-69
2022/04/18 11:22:16;;;;;;;0.70;0.70;;;18.20;96.30;;;;;;4993658;28;20236;-70
2022/04/18 11:24:55;;;;;;;0.80;0.80;;;18.40;95.70;;;;;;4993816;28;20229;-68
2022/04/18 11:27:24;;;;;;;1.00;1.00;;;18.70;95.90;;;;;;4991870;28;20235;-69
2022/04/18 11:29:53;;;;;;;0.85;0.85;;;18.60;95.00;;;;;;4993721;28;20255;-68
2022/04/18 11:32:23;;;;;;;0.90;0.90;;;18.60;95.60;;;;;;4994544;28;20206;-67
2022/04/18 11:34:51;;;;;;;0.80;0.80;;;18.40;95.00;;;;;;4993229;28;20240;-68
2022/04/18 11:37:26;;;;;;;1.10;0.80;;;18.50;95.50;;;;;;4992070;28;20803;-69
2022/04/18 11:39:56;;;;;;;0.80;0.80;;;18.90;95.60;;;;;;4994009;28;20289;-67
2022/04/18 11:42:25;;;;;;;1.25;0.90;;;19.00;94.60;;;;;;5006901;28;20237;-68
2022/04/18 11:44:53;;;;;;;0.85;0.85;;;18.90;94.30;;;;;;5012918;28;20577;-69
2022/04/18 11:47:22;;;;;;;0.90;0.90;;;18.80;94.50;;;;;;5011347;28;20272;-68
2022/04/18 11:49:55;;;;;;;1.00;1.00;;;19.00;94.20;;;;;;5012321;28;20212;-68
2022/04/18 11:52:24;;;;;;;1.00;1.00;;;18.80;94.10;;;;;;5012384;28;20280;-67
2022/04/18 11:55:01;;;;;;;0.80;0.80;;;18.80;93.70;;;;;;5012615;28;20413;-67
2022/04/18 11:57:29;;;;;;;0.98;0.98;;;18.80;93.40;;;;;;5019119;28;20231;-67
2022/04/18 11:59:57;;;;;;;0.95;0.95;;;18.90;93.90;;;;;;5020124;28;20285;-72
2022/04/18 12:08:00;;;;;;;0.82;0.82;;;18.90;93.60;;;;;;5011410;28;20254;-70
2022/04/18 12:10:31;;;;;;;0.75;0.75;;;19.00;93.70;;;;;;5011973;28;20201;-68
2022/04/18 12:12:59;;;;;;;0.73;0.73;;;19.10;92.80;;;;;;5011827;28;20267;-68
2022/04/18 12:15:27;;;;;;;0.90;0.90;;;19.20;93.30;;;;;;5011563;28;20228;-68
2022/04/18 12:17:56;;;;;;;0.75;0.75;;;19.30;93.30;;;;;;5011138;28;20233;-66
2022/04/18 12:20:25;;;;;;;0.88;0.88;;;19.40;93.00;;;;;;5012146;28;20292;-68
2022/04/18 12:22:53;;;;;;;1.02;0.93;;;19.50;92.90;;;;;;5012515;28;20285;-67
2022/04/18 12:25:25;;;;;;;0.80;0.80;;;19.30;92.90;;;;;;5012558;28;20269;-67
2022/04/18 12:27:53;;;;;;;0.90;0.90;;;19.50;92.60;;;;;;5011447;28;20205;-68
2022/04/18 12:30:21;;;;;;;1.00;1.00;;;19.60;92.40;;;;;;5012652;28;20215;-66
2022/04/18 12:32:48;;;;;;;0.90;0.90;;;19.70;92.10;;;;;;5013108;28;20232;-68
2022/04/18 12:35:16;;;;;;;0.90;0.90;;;19.60;91.80;;;;;;5013606;28;20208;-68
2022/04/18 12:37:52;;;;;;;2.38;0.93;;;19.50;92.00;;;;;;5011164;28;20229;-68
2022/04/18 12:40:20;;;;;;;1.73;0.90;;;19.50;92.00;;;;;;5011579;28;20216;-67
2022/04/18 12:42:51;;;;;;;0.90;0.90;;;19.40;92.10;;;;;;5013417;28;20292;-67
2022/04/18 12:45:19;;;;;;;0.90;0.90;;;19.30;92.20;;;;;;5015829;28;20641;-69
2022/04/18 12:47:46;;;;;;;0.90;0.90;;;19.50;92.30;;;;;;5013986;28;20715;-70
2022/04/18 12:50:15;;;;;;;0.85;0.85;;;19.60;91.80;;;;;;5015875;28;20302;-68
2022/04/18 12:52:49;;;;;;;0.80;0.80;;;19.60;91.80;;;;;;5015553;28;20205;-67
2022/04/18 12:55:17;;;;;;;1.00;1.00;;;19.70;92.40;;;;;;5015224;28;20406;-67
2022/04/18 12:57:49;;;;;;;0.98;0.98;;;19.80;91.90;;;;;;5014599;28;20244;-68
2022/04/18 13:00:19;;;;;;;1.00;1.00;;;19.80;91.70;;;;;;5015133;28;20267;-68
2022/04/18 13:02:59;;;;;;;1.02;1.00;;;19.60;91.60;;;;;;5015286;28;20282;-68
2022/04/18 13:05:28;;;;;;;1.10;1.10;;;19.70;91.70;;;;;;5014814;28;20308;-70
2022/04/18 13:08:03;;;;;;;0.90;0.90;;;19.80;91.50;;;;;;5014259;28;20362;-68
2022/04/18 13:10:31;;;;;;;0.90;0.90;;;19.80;91.30;;;;;;5013929;28;20636;-67
2022/04/18 13:13:04;;;;;;;0.80;0.80;;;19.80;91.70;;;;;;5007296;28;20213;-69
2022/04/18 13:15:33;;;;;;;0.90;0.90;;;20.00;91.70;;;;;;5016263;28;20214;-68
2022/04/18 13:18:03;;;;;;;0.82;0.82;;;19.90;91.60;;;;;;5014098;28;20207;-68
2022/04/18 13:20:31;;;;;;;1.00;1.00;;;19.90;91.00;;;;;;5014707;28;20209;-67
2022/04/18 13:22:58;;;;;;;0.95;0.95;;;19.80;90.80;;;;;;5015504;28;20205;-69